Time;durP1;ratioP1;P1;durP2;ratioP2;P2;SDS_P1;SDS_P2;PMS_P1;PMS_P2;Temp;Humidity;BMP_temperature;BMP_pressure;BME280_temperature;BME280_humidity;BME280_pressure;Samples;Min_cycle;Max_cycle;Signal;HPM_P1;HPM_P2
2022/11/25 00:01:10;;;;;;;6.03;4.40;;;;;;;9.54;100.00;96308.66;5004411;28;20073;-49
2022/11/25 00:03:39;;;;;;;7.43;5.05;;;;;;;9.27;100.00;96313.69;5008660;28;20074;-45
2022/11/25 00:06:09;;;;;;;8.15;4.50;;;;;;;9.37;100.00;96310.22;5001980;28;20092;-45
2022/11/25 00:08:38;;;;;;;10.15;5.00;;;;;;;9.49;100.00;96314.31;4992702;28;20090;-49
2022/11/25 00:11:07;;;;;;;7.57;4.70;;;;;;;9.64;100.00;96306.84;4993743;28;20096;-48
2022/11/25 00:13:36;;;;;;;5.60;4.93;;;;;;;9.39;100.00;96308.25;4994045;28;20093;-48
2022/11/25 00:16:08;;;;;;;8.27;4.80;;;;;;;9.42;100.00;96311.44;4996969;28;20070;-48
2022/11/25 00:18:38;;;;;;;6.10;4.82;;;;;;;9.59;100.00;96312.50;5005759;28;20549;-49
2022/11/25 00:21:07;;;;;;;6.30;5.28;;;;;;;9.61;100.00;96318.47;4996956;28;20434;-47
2022/11/25 00:23:36;;;;;;;9.02;4.95;;;;;;;9.52;100.00;96321.94;5003437;28;20084;-50
2022/11/25 00:26:08;;;;;;;5.43;4.90;;;;;;;9.51;100.00;96320.28;4997929;28;20429;-48
2022/11/25 00:28:37;;;;;;;6.57;5.03;;;;;;;9.51;100.00;96320.28;4999895;28;20085;-45
2022/11/25 00:31:07;;;;;;;5.10;4.60;;;;;;;9.46;100.00;96327.78;5003740;28;20070;-49
2022/11/25 00:33:38;;;;;;;6.18;4.63;;;;;;;9.39;100.00;96329.31;5001693;28;20084;-51
2022/11/25 00:36:10;;;;;;;5.97;4.85;;;;;;;9.31;100.00;96331.81;5000185;28;20132;-48
2022/11/25 00:38:38;;;;;;;5.35;4.10;;;;;;;9.37;100.00;96326.00;5005884;28;20456;-46
2022/11/25 00:46:38;;;;;;;5.82;4.03;;;;;;;9.34;100.00;96331.53;4996575;28;20528;-48
2022/11/25 00:49:08;;;;;;;7.75;4.53;;;;;;;9.24;100.00;96327.09;4996002;28;20069;-48
2022/11/25 00:51:36;;;;;;;7.75;4.57;;;;;;;9.19;100.00;96331.16;5002067;28;20074;-47
2022/11/25 00:54:05;;;;;;;5.18;4.60;;;;;;;9.03;100.00;96332.50;4991255;28;20082;-46
2022/11/25 00:56:33;;;;;;;8.75;5.00;;;;;;;8.88;100.00;96325.16;5006567;28;20092;-48
2022/11/25 00:59:03;;;;;;;7.25;4.90;;;;;;;8.86;100.00;96320.06;5000774;28;20073;-48
2022/11/25 01:01:31;;;;;;;6.28;4.30;;;;;;;8.88;100.00;96320.75;5005375;28;20089;-48
2022/11/25 01:04:00;;;;;;;6.28;4.90;;;;;;;8.95;100.00;96323.66;4998824;28;20084;-45
2022/11/25 01:06:29;;;;;;;6.50;4.72;;;;;;;9.10;100.00;96326.72;4996733;28;20536;-50
2022/11/25 01:08:58;;;;;;;7.23;5.20;;;;;;;9.12;100.00;96320.34;5009429;28;20531;-48
2022/11/25 01:11:26;;;;;;;6.65;4.60;;;;;;;9.12;100.00;96322.97;5002766;28;21098;-50
2022/11/25 01:13:55;;;;;;;6.05;4.53;;;;;;;9.17;100.00;96314.66;5003248;28;20076;-48
2022/11/25 01:16:29;;;;;;;6.75;4.57;;;;;;;9.06;100.00;96320.88;5007416;28;20664;-51
2022/11/25 01:18:58;;;;;;;6.97;4.73;;;;;;;9.06;100.00;96320.06;5005906;28;20078;-47
2022/11/25 01:21:30;;;;;;;6.82;4.72;;;;;;;8.98;100.00;96315.47;4999825;28;20556;-48
2022/11/25 01:24:00;;;;;;;8.80;4.93;;;;;;;9.04;100.00;96325.44;5007165;28;20078;-49
2022/11/25 01:26:29;;;;;;;9.50;5.75;;;;;;;9.08;100.00;96321.56;5011159;28;20724;-47
2022/11/25 01:28:59;;;;;;;7.43;5.30;;;;;;;9.06;100.00;96318.25;5001299;28;21510;-50
2022/11/25 01:31:29;;;;;;;5.40;4.88;;;;;;;9.08;100.00;96320.75;5005195;28;20082;-49
2022/11/25 01:34:00;;;;;;;6.53;4.90;;;;;;;9.09;100.00;96322.44;5010627;28;20077;-50
2022/11/25 01:36:30;;;;;;;11.00;5.65;;;;;;;9.08;100.00;96318.94;5009373;28;20619;-48
2022/11/25 01:39:00;;;;;;;9.40;5.18;;;;;;;9.02;100.00;96315.06;5010103;28;20089;-46
2022/11/25 01:41:30;;;;;;;7.65;5.18;;;;;;;9.00;100.00;96317.00;5001788;28;20085;-48
2022/11/25 01:44:06;;;;;;;7.47;5.20;;;;;;;8.93;100.00;96328.22;5001273;28;20152;-47
2022/11/25 01:46:51;;;;;;;6.07;4.50;;;;;;;8.98;100.00;96315.47;5011904;28;20101;-44
2022/11/25 01:49:24;;;;;;;7.10;4.55;;;;;;;8.98;100.00;96312.84;5004994;28;20080;-45
2022/11/25 01:51:56;;;;;;;7.15;4.50;;;;;;;8.61;100.00;96318.78;5002659;28;20070;-44
2022/11/25 01:54:28;;;;;;;6.47;4.60;;;;;;;8.09;100.00;96324.13;5011488;28;20533;-48
2022/11/25 01:56:59;;;;;;;5.95;5.18;;;;;;;8.23;100.00;96320.31;5009683;28;20085;-47
2022/11/25 01:59:29;;;;;;;7.13;5.38;;;;;;;8.28;100.00;96318.09;5001073;28;20067;-49
2022/11/25 02:01:58;;;;;;;5.95;5.32;;;;;;;8.47;100.00;96309.50;5011605;28;20099;-45
2022/11/25 02:04:31;;;;;;;8.40;5.70;;;;;;;8.49;100.00;96312.78;5004503;28;20078;-46
2022/11/25 02:07:04;;;;;;;7.90;4.97;;;;;;;8.62;100.00;96315.19;5007118;28;20081;-48
2022/11/25 02:09:33;;;;;;;5.65;5.10;;;;;;;8.50;100.00;96316.28;5001337;28;20081;-48
2022/11/25 02:12:02;;;;;;;6.97;5.28;;;;;;;8.48;100.00;96319.03;5008690;28;20085;-49
2022/11/25 02:14:30;;;;;;;7.20;4.93;;;;;;;8.49;100.00;96312.78;5005044;28;20472;-51
2022/11/25 02:17:00;;;;;;;8.80;5.35;;;;;;;8.56;100.00;96302.56;4995775;28;20085;-47
2022/11/25 02:19:34;;;;;;;6.35;5.05;;;;;;;8.64;100.00;96309.81;5002821;28;20104;-50
2022/11/25 02:22:05;;;;;;;9.05;5.75;;;;;;;8.53;100.00;96305.47;5003899;28;20523;-49
2022/11/25 02:24:37;;;;;;;7.80;5.50;;;;;;;8.32;100.00;96303.72;4998038;28;20130;-48
2022/11/25 02:27:07;;;;;;;6.55;5.15;;;;;;;8.31;100.00;96307.34;5005225;28;20082;-48
2022/11/25 02:29:36;;;;;;;8.63;5.53;;;;;;;8.27;100.00;96302.50;5004466;28;20085;-45
2022/11/25 02:32:04;;;;;;;6.10;5.40;;;;;;;8.41;100.00;96304.75;4998900;28;20070;-44
2022/11/25 02:34:33;;;;;;;8.02;5.90;;;;;;;8.48;100.00;96299.81;5010018;28;20097;-50
2022/11/25 02:37:01;;;;;;;6.38;5.40;;;;;;;8.54;100.00;96297.47;5006377;28;20081;-48
2022/11/25 02:39:30;;;;;;;6.00;5.40;;;;;;;8.62;100.00;96304.66;5010770;28;20177;-46
2022/11/25 02:41:59;;;;;;;6.30;5.30;;;;;;;8.58;100.00;96305.91;5002222;28;20081;-47
2022/11/25 02:44:29;;;;;;;8.00;5.18;;;;;;;8.61;100.00;96305.63;5010881;28;20085;-47
2022/11/25 02:46:57;;;;;;;7.55;5.25;;;;;;;8.69;100.00;96297.06;5009741;28;20089;-47
2022/11/25 02:49:25;;;;;;;7.78;5.20;;;;;;;8.52;100.00;96296.75;5004226;28;20077;-50
2022/11/25 02:51:54;;;;;;;6.78;5.00;;;;;;;8.64;100.00;96296.66;4998365;28;20085;-47
2022/11/25 02:54:22;;;;;;;9.02;5.47;;;;;;;8.40;100.00;96313.63;5005709;28;20085;-49
2022/11/25 02:56:50;;;;;;;6.72;4.93;;;;;;;8.24;100.00;96311.47;5001225;28;20090;-50
2022/11/25 02:59:19;;;;;;;6.78;4.88;;;;;;;8.26;100.00;96313.97;5006765;28;20108;-47
2022/11/25 03:01:48;;;;;;;5.30;4.70;;;;;;;8.32;100.00;96311.63;4997251;28;20074;-46
2022/11/25 03:04:17;;;;;;;5.10;4.60;;;;;;;8.55;100.00;96308.81;5007291;28;20081;-47
2022/11/25 03:06:45;;;;;;;5.07;4.63;;;;;;;8.56;100.00;96306.03;5000222;28;20077;-47
2022/11/25 03:09:13;;;;;;;4.95;4.55;;;;;;;8.57;100.00;96304.25;5004589;28;20073;-45
2022/11/25 03:14:27;;;;;;;6.50;4.57;;;;;;;8.49;100.00;96304.09;4996095;28;20076;-50
2022/11/25 03:16:57;;;;;;;5.45;4.68;;;;;;;8.54;100.00;96296.63;4999716;28;20082;-46
2022/11/25 03:19:26;;;;;;;5.68;4.80;;;;;;;8.42;100.00;96298.53;5002948;28;20077;-48
2022/11/25 03:21:54;;;;;;;7.90;4.90;;;;;;;8.30;100.00;96297.81;5005517;28;20464;-50
2022/11/25 03:24:22;;;;;;;5.32;4.70;;;;;;;8.35;100.00;96296.56;4997960;28;20093;-53
2022/11/25 03:26:51;;;;;;;8.18;5.25;;;;;;;8.42;100.00;96295.91;4991415;28;20073;-46
2022/11/25 03:29:19;;;;;;;6.10;4.57;;;;;;;8.58;100.00;96300.66;5008988;28;20112;-45
2022/11/25 03:31:47;;;;;;;5.75;4.82;;;;;;;8.68;100.00;96292.78;5002916;28;20093;-49
2022/11/25 03:34:17;;;;;;;5.18;4.63;;;;;;;8.72;100.00;96302.06;5000958;28;20081;-50
2022/11/25 03:36:45;;;;;;;6.28;4.70;;;;;;;8.45;100.00;96303.53;5000762;28;20555;-45
2022/11/25 03:39:15;;;;;;;4.90;4.40;;;;;;;8.38;100.00;96307.66;5003798;28;20093;-46
2022/11/25 03:41:43;;;;;;;5.80;4.50;;;;;;;8.50;100.00;96305.78;5008291;28;20478;-47
2022/11/25 03:44:11;;;;;;;4.63;4.22;;;;;;;8.27;100.00;96305.94;5003884;28;20089;-45
2022/11/25 03:46:39;;;;;;;6.70;4.63;;;;;;;8.73;100.00;96308.97;5001714;28;20096;-46
2022/11/25 03:49:08;;;;;;;5.10;4.60;;;;;;;8.56;100.00;96311.28;5009820;28;20103;-52
2022/11/25 03:51:37;;;;;;;5.43;4.90;;;;;;;8.37;100.00;96308.59;5006100;28;20277;-51
2022/11/25 03:54:06;;;;;;;5.20;4.70;;;;;;;8.49;100.00;96311.97;5009783;28;20077;-51
2022/11/25 03:56:34;;;;;;;5.10;4.60;;;;;;;8.47;100.00;96314.75;5009034;28;20082;-50
2022/11/25 03:59:02;;;;;;;4.80;4.30;;;;;;;8.51;100.00;96305.63;5000104;28;20085;-46
2022/11/25 04:01:30;;;;;;;5.50;4.90;;;;;;;8.45;100.00;96311.41;4991842;28;20078;-46
2022/11/25 04:03:59;;;;;;;5.63;4.70;;;;;;;8.45;100.00;96315.84;4997335;28;20548;-46
2022/11/25 04:06:27;;;;;;;7.57;4.93;;;;;;;8.43;100.00;96308.09;5008071;28;20082;-48
2022/11/25 04:08:57;;;;;;;5.55;4.70;;;;;;;8.47;100.00;96304.22;5001301;28;20077;-52
2022/11/25 04:12:45;;;;;;;5.53;5.03;;;;;;;8.42;100.00;96302.97;5007866;28;20088;-48
2022/11/25 04:14:13;;;;;;;6.32;4.93;;;;;;;8.35;100.00;96314.94;5009011;28;20640;-51
2022/11/25 04:16:42;;;;;;;6.00;4.95;;;;;;;8.44;100.00;96315.00;5008105;28;20088;-50
2022/11/25 04:19:10;;;;;;;5.32;4.82;;;;;;;8.42;100.00;96324.81;4992781;28;20085;-45
2022/11/25 04:21:38;;;;;;;5.90;4.85;;;;;;;8.29;100.00;96326.81;5000196;28;20093;-52
2022/11/25 04:24:08;;;;;;;6.72;4.85;;;;;;;8.26;100.00;96337.63;5008278;28;20108;-51
2022/11/25 04:26:37;;;;;;;8.45;6.05;;;;;;;8.28;100.00;96326.00;5006325;28;20555;-48
2022/11/25 04:29:05;;;;;;;6.68;5.15;;;;;;;8.43;100.00;96328.25;5000412;28;20094;-48
2022/11/25 04:31:34;;;;;;;6.35;5.10;;;;;;;8.45;100.00;96336.84;5000703;28;20046;-46
2022/11/25 04:34:02;;;;;;;5.90;4.90;;;;;;;8.41;100.00;96335.47;5002619;28;20077;-48
2022/11/25 04:36:31;;;;;;;6.20;5.25;;;;;;;8.22;100.00;96341.44;5008492;28;20088;-47
2022/11/25 04:38:59;;;;;;;6.60;4.88;;;;;;;8.23;100.00;96340.50;5006437;28;20078;-46
2022/11/25 04:41:28;;;;;;;5.45;4.95;;;;;;;8.14;100.00;96334.25;5006021;28;20108;-46
2022/11/25 04:43:59;;;;;;;5.65;4.97;;;;;;;8.07;100.00;96333.94;5011426;28;20089;-47
2022/11/25 04:46:31;;;;;;;5.70;5.05;;;;;;;8.05;100.00;96337.66;5011870;28;20096;-45
2022/11/25 04:49:00;;;;;;;5.40;4.90;;;;;;;8.19;100.00;96339.94;5010763;28;20065;-49
2022/11/25 04:51:28;;;;;;;5.97;5.38;;;;;;;8.24;100.00;96344.78;5011894;28;20489;-51
2022/11/25 04:53:56;;;;;;;6.68;5.22;;;;;;;8.38;100.00;96338.38;5008853;28;20081;-48
2022/11/25 04:56:25;;;;;;;8.45;5.72;;;;;;;8.36;100.00;96335.81;5008479;28;20088;-46
2022/11/25 05:01:40;;;;;;;8.38;6.25;;;;;;;7.93;100.00;96329.03;5009503;28;20092;-45
2022/11/25 05:04:09;;;;;;;8.93;6.32;;;;;;;8.01;100.00;96323.13;5004409;28;20081;-50
2022/11/25 05:06:37;;;;;;;6.85;5.90;;;;;;;8.16;100.00;96324.44;5003127;28;20100;-50
2022/11/25 05:09:05;;;;;;;6.28;5.40;;;;;;;8.13;100.00;96329.97;5002366;28;20085;-48
2022/11/25 05:11:34;;;;;;;10.30;6.05;;;;;;;8.37;100.00;96334.88;5009347;28;20089;-46
2022/11/25 05:14:03;;;;;;;6.25;5.60;;;;;;;8.48;100.00;96329.53;5005515;28;20085;-48
2022/11/25 05:16:32;;;;;;;6.83;6.00;;;;;;;8.55;100.00;96335.91;5005920;28;20077;-50
2022/11/25 05:19:00;;;;;;;7.95;5.80;;;;;;;8.59;100.00;96333.03;5008187;28;20089;-56
2022/11/25 05:21:28;;;;;;;7.50;5.40;;;;;;;8.61;100.00;96329.28;5005183;28;20092;-49
2022/11/25 05:23:57;;;;;;;6.07;5.13;;;;;;;8.63;100.00;96326.50;5010318;28;20560;-51
2022/11/25 05:26:25;;;;;;;7.63;5.22;;;;;;;8.59;100.00;96328.59;5009200;28;20081;-44
2022/11/25 05:28:53;;;;;;;6.03;5.18;;;;;;;8.61;100.00;96329.28;5011237;28;20128;-48
2022/11/25 05:31:23;;;;;;;6.00;5.00;;;;;;;8.31;100.00;96338.84;5007984;28;20081;-45
2022/11/25 05:33:51;;;;;;;6.03;5.00;;;;;;;7.89;100.00;96327.66;5001302;28;20077;-48
2022/11/25 05:36:19;;;;;;;6.90;5.38;;;;;;;8.00;100.00;96331.97;5010078;28;20449;-46
2022/11/25 05:38:48;;;;;;;5.65;5.15;;;;;;;8.08;100.00;96332.97;5012650;28;20096;-51
2022/11/25 05:41:16;;;;;;;7.63;5.30;;;;;;;8.15;100.00;96338.53;5009079;28;20081;-46
2022/11/25 05:43:46;;;;;;;6.13;5.20;;;;;;;8.16;100.00;96345.47;5005071;28;20082;-48
2022/11/25 05:46:14;;;;;;;6.22;5.60;;;;;;;8.24;100.00;96342.16;5007743;28;20085;-47
2022/11/25 05:48:44;;;;;;;11.27;5.88;;;;;;;8.18;100.00;96342.69;5008070;28;20092;-51
2022/11/25 05:51:12;;;;;;;9.10;5.90;;;;;;;8.22;100.00;96339.66;5001159;28;20530;-48
2022/11/25 05:53:40;;;;;;;9.07;5.47;;;;;;;8.23;100.00;96333.44;5006147;28;20069;-49
2022/11/25 05:56:10;;;;;;;7.38;5.63;;;;;;;7.98;100.00;96331.25;5008305;28;20112;-47
2022/11/25 05:58:38;;;;;;;6.20;5.53;;;;;;;7.84;100.00;96341.19;5007594;28;20097;-45
2022/11/25 06:01:08;;;;;;;7.80;5.75;;;;;;;7.93;100.00;96339.53;5005687;28;20468;-48
2022/11/25 06:03:37;;;;;;;7.47;6.00;;;;;;;7.40;100.00;96336.19;5007306;28;20093;-48
2022/11/25 06:06:07;;;;;;;7.53;5.50;;;;;;;6.55;100.00;96329.16;5009395;28;20536;-47
2022/11/25 06:08:36;;;;;;;6.78;5.63;;;;;;;7.22;100.00;96341.19;5008782;28;20080;-48
2022/11/25 06:11:06;;;;;;;7.03;5.95;;;;;;;7.56;100.00;96342.66;5011018;28;20081;-49
2022/11/25 06:13:34;;;;;;;6.33;5.47;;;;;;;7.54;100.00;96344.59;5009071;28;20066;-47
2022/11/25 06:16:08;;;;;;;7.45;5.85;;;;;;;7.69;100.00;96349.50;5008163;28;20104;-53
2022/11/25 06:18:37;;;;;;;8.20;5.80;;;;;;;7.78;100.00;96343.50;5006080;28;20093;-46
2022/11/25 06:21:07;;;;;;;6.70;6.00;;;;;;;7.92;100.00;96342.31;5005012;28;20081;-51
2022/11/25 06:23:36;;;;;;;7.65;5.53;;;;;;;7.96;100.00;96341.09;5001192;28;20177;-52
2022/11/25 06:26:06;;;;;;;7.18;5.25;;;;;;;8.02;100.00;96351.06;5002217;28;20089;-47
2022/11/25 06:28:35;;;;;;;5.57;5.05;;;;;;;8.00;100.00;96345.09;5007105;28;20123;-50
2022/11/25 06:31:07;;;;;;;5.82;5.25;;;;;;;8.04;100.00;96349.13;5003332;28;20080;-47
2022/11/25 06:33:35;;;;;;;8.13;5.55;;;;;;;8.07;100.00;96348.88;5004784;28;20537;-49
2022/11/25 06:36:05;;;;;;;9.15;5.40;;;;;;;8.00;100.00;96355.59;5006028;28;20163;-51
2022/11/25 06:38:35;;;;;;;5.93;5.32;;;;;;;8.17;100.00;96349.75;5005909;28;20598;-48
2022/11/25 06:41:04;;;;;;;6.10;5.10;;;;;;;8.21;100.00;96352.94;5004286;28;20100;-51
2022/11/25 06:43:32;;;;;;;5.80;5.20;;;;;;;8.25;100.00;96351.69;5007235;28;20112;-51
2022/11/25 06:46:03;;;;;;;6.50;5.40;;;;;;;8.31;100.00;96348.53;5009038;28;20078;-53
2022/11/25 06:48:31;;;;;;;7.85;5.60;;;;;;;8.21;100.00;96350.31;5008587;28;20082;-46
2022/11/25 06:51:01;;;;;;;6.40;5.43;;;;;;;8.30;100.00;96350.34;5007675;28;20568;-46
2022/11/25 06:53:30;;;;;;;6.95;5.13;;;;;;;8.27;100.00;96355.03;5008749;28;20117;-48
2022/11/25 06:56:04;;;;;;;5.30;4.80;;;;;;;8.17;100.00;96351.53;5006320;28;20089;-50
2022/11/25 06:58:33;;;;;;;7.55;6.40;;;;;;;7.98;100.00;96334.75;5005686;28;20648;-51
2022/11/25 07:01:05;;;;;;;14.35;7.22;;;;;;;8.09;100.00;96325.94;5003197;28;20088;-49
2022/11/25 07:03:34;;;;;;;10.10;7.22;;;;;;;8.18;100.00;96333.00;5004651;28;20100;-48
2022/11/25 07:06:03;;;;;;;13.95;8.93;;;;;;;8.14;100.00;96347.38;5004038;28;20070;-50
2022/11/25 07:08:31;;;;;;;12.63;8.05;;;;;;;8.62;100.00;96340.63;5001235;28;20081;-46
2022/11/25 07:11:07;;;;;;;27.48;18.70;;;;;;;8.86;100.00;96340.25;5003268;28;20100;-52
2022/11/25 07:13:36;;;;;;;14.75;9.05;;;;;;;8.83;100.00;96341.34;4998330;28;20085;-46
2022/11/25 07:16:06;;;;;;;10.35;7.40;;;;;;;9.07;100.00;96337.50;5000422;28;20078;-50
2022/11/25 07:18:35;;;;;;;13.05;7.80;;;;;;;9.13;100.00;96343.03;5005515;28;20097;-51
2022/11/25 07:21:06;;;;;;;9.25;7.10;;;;;;;9.32;100.00;96346.63;5002982;28;20069;-46
2022/11/25 07:23:34;;;;;;;10.18;6.43;;;;;;;9.18;100.00;96347.88;5004524;28;20096;-48
2022/11/25 07:26:04;;;;;;;7.88;6.55;;;;;;;9.02;100.00;96362.41;5006222;28;20189;-55
2022/11/25 07:28:33;;;;;;;8.43;6.50;;;;;;;8.84;100.00;96365.84;5005777;28;20089;-45
2022/11/25 07:31:07;;;;;;;9.07;6.75;;;;;;;9.21;100.00;96358.94;5004271;28;20760;-47
2022/11/25 07:33:56;;;;;;;9.70;6.78;;;;;;;9.07;100.00;96369.88;5002660;28;20154;-51
2022/11/25 07:36:25;;;;;;;9.13;6.03;;;;;;;9.14;100.00;96371.00;5004058;28;20046;-49
2022/11/25 07:38:54;;;;;;;7.93;6.55;;;;;;;8.98;100.00;96382.09;5003635;28;20074;-49
2022/11/25 07:41:24;;;;;;;8.52;6.50;;;;;;;9.40;100.00;96373.09;5002843;28;20116;-49
2022/11/25 07:43:54;;;;;;;9.90;7.18;;;;;;;9.00;100.00;96376.66;5007137;28;20101;-52
2022/11/25 07:46:25;;;;;;;7.32;5.82;;;;;;;9.35;100.00;96372.66;5005813;28;20092;-49
2022/11/25 07:48:56;;;;;;;9.40;6.40;;;;;;;9.58;100.00;96375.84;5007578;28;20077;-50
2022/11/25 07:51:26;;;;;;;9.40;6.77;;;;;;;9.72;100.00;96370.13;5007742;28;20092;-52
2022/11/25 07:53:55;;;;;;;9.15;6.60;;;;;;;9.66;100.00;96365.44;5002738;28;20580;-49
2022/11/25 07:56:24;;;;;;;11.55;7.78;;;;;;;9.79;100.00;96365.97;5007399;28;20077;-48
2022/11/25 07:58:54;;;;;;;11.27;8.15;;;;;;;9.91;100.00;96370.09;4999474;28;20086;-46
2022/11/25 08:01:22;;;;;;;16.55;9.75;;;;;;;9.99;100.00;96379.91;5002814;28;20206;-49
2022/11/25 08:03:51;;;;;;;9.90;7.78;;;;;;;9.91;100.00;96382.41;5006978;28;20631;-48
2022/11/25 08:06:21;;;;;;;9.57;7.28;;;;;;;9.95;100.00;96382.00;5004250;28;20077;-46
2022/11/25 08:08:51;;;;;;;7.65;6.35;;;;;;;10.05;100.00;96379.34;5005004;28;20085;-49
2022/11/25 08:11:22;;;;;;;6.68;5.85;;;;;;;10.23;100.00;96382.06;5005503;28;20163;-46
2022/11/25 08:13:51;;;;;;;7.15;6.03;;;;;;;10.21;100.00;96384.00;5001149;28;20085;-46
2022/11/25 08:16:21;;;;;;;9.05;6.10;;;;;;;10.37;100.00;96388.69;4999642;28;20081;-46
2022/11/25 08:18:50;;;;;;;8.40;6.85;;;;;;;10.39;100.00;96398.13;5007341;28;20472;-50
2022/11/25 08:21:18;;;;;;;6.55;5.88;;;;;;;10.56;100.00;96396.50;5002007;28;20648;-51
2022/11/25 08:23:47;;;;;;;9.38;6.32;;;;;;;10.82;100.00;96395.84;5007739;28;20096;-43
2022/11/25 08:26:18;;;;;;;7.22;6.03;;;;;;;10.81;100.00;96387.09;4999988;28;20462;-48
2022/11/25 08:28:46;;;;;;;9.38;6.20;;;;;;;10.28;100.00;96387.75;4999554;28;20070;-47
2022/11/25 08:31:17;;;;;;;8.63;6.72;;;;;;;10.51;100.00;96385.59;4990115;28;20108;-47
2022/11/25 08:33:48;;;;;;;7.57;5.95;;;;;;;10.75;100.00;96377.13;4996209;28;20074;-53
2022/11/25 08:36:16;;;;;;;7.10;5.70;;;;;;;10.53;100.00;96386.28;5002713;28;20074;-44
2022/11/25 08:38:46;;;;;;;7.68;6.53;;;;;;;10.63;100.00;96389.69;4998287;28;20078;-51
2022/11/25 08:41:17;;;;;;;9.73;7.20;;;;;;;10.97;100.00;96383.78;5006627;28;20073;-45
2022/11/25 08:43:46;;;;;;;9.32;7.00;;;;;;;10.61;100.00;96386.38;5003802;28;20078;-45
2022/11/25 08:46:16;;;;;;;9.77;6.95;;;;;;;10.63;100.00;96386.22;5001368;28;20140;-45
2022/11/25 08:48:46;;;;;;;7.15;5.95;;;;;;;11.12;100.00;96387.59;5003651;28;20086;-45
2022/11/25 08:51:18;;;;;;;9.65;7.05;;;;;;;11.40;100.00;96390.16;4989880;28;20082;-43
2022/11/25 08:53:47;;;;;;;11.35;6.57;;;;;;;11.45;100.00;96390.53;5001822;28;20092;-45
2022/11/25 08:56:15;;;;;;;8.35;6.07;;;;;;;11.04;100.00;96402.50;4990325;28;20127;-46
2022/11/25 08:58:48;;;;;;;8.20;7.05;;;;;;;10.38;100.00;96406.16;5007396;28;20077;-49
2022/11/25 09:01:18;;;;;;;7.75;6.50;;;;;;;10.88;100.00;96408.44;4996230;28;20097;-46
2022/11/25 09:03:49;;;;;;;12.07;7.97;;;;;;;10.88;100.00;96411.09;5001475;28;20070;-48
2022/11/25 09:06:18;;;;;;;13.40;8.52;;;;;;;10.81;100.00;96418.75;5006717;28;20077;-47
2022/11/25 09:08:47;;;;;;;13.93;9.50;;;;;;;10.93;100.00;96427.28;4998574;28;20478;-45
2022/11/25 09:11:16;;;;;;;14.77;10.25;;;;;;;10.84;100.00;96429.00;4990091;28;20089;-46
2022/11/25 09:13:44;;;;;;;16.90;11.18;;;;;;;11.03;100.00;96428.06;4995372;28;20476;-49
2022/11/25 09:16:14;;;;;;;15.85;10.85;;;;;;;11.23;100.00;96430.59;5009053;28;20533;-45
2022/11/25 09:18:42;;;;;;;13.95;9.05;;;;;;;11.41;100.00;96447.25;5008680;28;20077;-45
2022/11/25 09:21:15;;;;;;;14.68;9.80;;;;;;;11.34;100.00;96454.94;4995673;28;20086;-45
2022/11/25 09:23:43;;;;;;;11.32;8.90;;;;;;;11.48;100.00;96453.59;5005738;28;20081;-50
2022/11/25 09:26:21;;;;;;;12.55;8.73;;;;;;;11.64;100.00;96448.47;5001289;28;20089;-45
2022/11/25 09:28:49;;;;;;;11.07;7.80;;;;;;;11.87;100.00;96448.03;5006921;28;20089;-49
2022/11/25 09:31:18;;;;;;;8.00;6.72;;;;;;;12.11;100.00;96456.16;5003130;28;20100;-48
2022/11/25 09:33:46;;;;;;;7.82;6.10;;;;;;;12.49;100.00;96453.25;5008762;28;20086;-47
2022/11/25 09:36:17;;;;;;;6.28;5.03;;;;;;;12.58;100.00;96453.13;5007797;28;20078;-45
2022/11/25 09:38:45;;;;;;;8.70;5.82;;;;;;;12.66;100.00;96448.88;5008103;28;20093;-44
2022/11/25 09:47:01;;;;;;;7.70;5.70;;;;;;;13.24;100.00;96434.91;5000876;28;20131;-44
2022/11/25 09:49:40;;;;;;;6.78;4.95;;;;;;;13.26;100.00;96430.28;5005207;28;20088;-44
2022/11/25 09:52:16;;;;;;;5.70;4.78;;;;;;;13.46;100.00;96436.13;5007902;28;20084;-48
2022/11/25 09:54:49;;;;;;;7.22;5.38;;;;;;;13.61;100.00;96433.66;5012553;28;20077;-49
2022/11/25 09:57:25;;;;;;;61.05;22.83;;;;;;;13.59;100.00;96435.63;5001747;28;20548;-45
2022/11/25 10:00:02;;;;;;;83.32;36.75;;;;;;;13.60;100.00;96434.66;5010184;28;20089;-43
2022/11/25 10:02:36;;;;;;;39.05;22.85;;;;;;;13.12;100.00;96434.34;5008423;28;20080;-47
2022/11/25 10:05:08;;;;;;;10.43;8.15;;;;;;;12.71;100.00;96439.50;5006248;28;20088;-42
2022/11/25 10:07:41;;;;;;;13.48;10.45;;;;;;;12.59;100.00;96446.88;5000707;28;20517;-42
2022/11/25 10:10:19;;;;;;;13.88;8.75;;;;;;;12.77;100.00;96448.63;5003954;28;20089;-43
2022/11/25 10:12:49;;;;;;;11.63;9.55;;;;;;;12.94;100.00;96450.34;4998551;28;20097;-46
2022/11/25 10:15:21;;;;;;;13.18;11.80;;;;;;;13.11;100.00;96450.38;5003284;28;20088;-42
2022/11/25 10:17:52;;;;;;;5.72;4.38;;;;;;;12.71;100.00;96455.38;5004829;28;20092;-42
2022/11/25 10:20:22;;;;;;;11.48;10.38;;;;;;;11.99;100.00;96454.75;5009894;28;20081;-43
2022/11/25 10:22:55;;;;;;;7.13;5.00;;;;;;;12.18;100.00;96445.81;5009283;28;20086;-42
2022/11/25 10:25:24;;;;;;;6.03;4.40;;;;;;;12.86;100.00;96433.59;5001447;28;20082;-42
2022/11/25 10:27:57;;;;;;;5.30;4.72;;;;;;;12.37;100.00;96447.41;5001820;28;20087;-46
2022/11/25 10:30:26;;;;;;;5.75;4.80;;;;;;;12.33;100.00;96446.06;4998233;28;20086;-46
2022/11/25 10:33:03;;;;;;;26.73;23.92;;;;;;;12.03;100.00;96448.16;5010719;28;20103;-50
2022/11/25 10:35:35;;;;;;;7.65;5.95;;;;;;;12.31;100.00;96440.91;5003248;28;20466;-46
2022/11/25 10:38:11;;;;;;;5.80;4.57;;;;;;;13.15;100.00;96431.38;4999436;28;20081;-47
2022/11/25 10:40:47;;;;;;;7.95;3.83;;;;;;;13.18;100.00;96430.22;5010146;28;20088;-52
2022/11/25 10:43:15;;;;;;;6.43;5.77;;;;;;;13.46;100.00;96426.34;4995563;28;20070;-48
2022/11/25 10:45:47;;;;;;;7.95;7.15;;;;;;;13.13;100.00;96430.72;5001573;28;20069;-44
2022/11/25 10:48:27;;;;;;;5.75;4.60;;;;;;;13.51;100.00;96416.09;5005476;28;20073;-46
2022/11/25 10:51:05;;;;;;;4.60;3.63;;;;;;;13.60;100.00;96432.00;5009265;28;20081;-47
2022/11/25 10:53:35;;;;;;;5.97;5.07;;;;;;;13.81;100.00;96439.47;5007745;28;20077;-51
2022/11/25 10:56:05;;;;;;;6.60;4.43;;;;;;;14.00;100.00;96429.38;5004906;28;20105;-45
2022/11/25 10:58:35;;;;;;;;;;;;;;;13.70;100.00;96433.50;5000180;28;20085;-49
2022/11/25 11:01:20;;;;;;;72.47;43.25;;;;;;;13.51;100.00;96431.97;5002447;28;19968;-46
2022/11/25 11:03:52;;;;;;;132.10;69.15;;;;;;;13.68;100.00;96430.19;5001277;28;20481;-48
2022/11/25 11:06:31;;;;;;;5.47;4.63;;;;;;;13.59;100.00;96427.69;5004806;28;20085;-49
2022/11/25 11:09:01;;;;;;;4.43;3.22;;;;;;;13.33;100.00;96430.47;5006509;28;20552;-45
2022/11/25 11:11:30;;;;;;;4.22;3.50;;;;;;;13.03;100.00;96420.25;4993145;28;20073;-44
2022/11/25 11:14:12;;;;;;;4.68;3.60;;;;;;;13.46;100.00;96429.00;5001922;28;20097;-50
2022/11/25 11:16:44;;;;;;;4.50;3.83;;;;;;;13.79;100.00;96429.03;5000089;28;20104;-43
2022/11/25 11:19:23;;;;;;;5.90;4.15;;;;;;;14.19;100.00;96430.00;5005085;28;20066;-47
2022/11/25 11:21:52;;;;;;;5.28;4.78;;;;;;;14.37;100.00;96421.84;5005210;28;20469;-48
2022/11/25 11:24:27;;;;;;;4.35;3.38;;;;;;;14.02;100.00;96414.09;5004026;28;20061;-45
2022/11/25 11:27:03;;;;;;;8.80;5.15;;;;;;;14.60;100.00;96411.38;5004300;28;20084;-48
2022/11/25 11:29:32;;;;;;;6.88;5.03;;;;;;;14.74;100.00;96410.66;5004804;28;20092;-46
2022/11/25 11:32:01;;;;;;;4.65;3.50;;;;;;;13.95;100.00;96407.00;5003902;28;20100;-45
2022/11/25 11:34:47;;;;;;;6.43;3.42;;;;;;;13.85;100.00;96409.81;5000890;28;20077;-49
2022/11/25 11:37:22;;;;;;;6.00;3.10;;;;;;;14.55;100.00;96397.78;5002559;28;20061;-46
2022/11/25 11:40:18;;;;;;;4.47;3.58;;;;;;;14.83;100.00;96396.38;5000282;28;20104;-48
2022/11/25 11:43:02;;;;;;;6.00;4.60;;;;;;;15.05;100.00;96400.06;5003064;28;20080;-45
2022/11/25 11:45:41;;;;;;;9.05;3.72;;;;;;;15.17;100.00;96389.88;5010168;28;20064;-49
2022/11/25 11:48:15;;;;;;;6.65;3.20;;;;;;;14.39;100.00;96390.69;5007728;28;20092;-46
2022/11/25 11:50:46;;;;;;;8.13;5.75;;;;;;;14.87;100.00;96397.69;4997349;28;20097;-44
2022/11/25 11:53:21;;;;;;;5.93;3.78;;;;;;;15.65;94.76;96407.31;5004512;28;20180;-48
2022/11/25 11:56:01;;;;;;;3.88;3.20;;;;;;;15.99;79.06;96397.28;5002149;28;20085;-45
2022/11/25 11:58:59;;;;;;;4.47;3.13;;;;;;;16.36;85.50;96407.91;4999092;28;20073;-44
2022/11/25 12:01:40;;;;;;;4.57;3.50;;;;;;;16.42;76.34;96393.06;5003712;28;20629;-49